sensor_id;sensor_type;location;lat;lon;timestamp;temperature;humidity
8643;DHT22;4359;49.358;11.256;2024-02-14T00:00:11;0.00;99.90
8643;DHT22;4359;49.358;11.256;2024-02-14T00:02:49;0.00;99.90
8643;DHT22;4359;49.358;11.256;2024-02-14T00:05:15;0.00;99.90
8643;DHT22;4359;49.358;11.256;2024-02-14T00:07:41;0.00;99.90
8643;DHT22;4359;49.358;11.256;2024-02-14T00:10:07;0.00;99.90
8643;DHT22;4359;49.358;11.256;2024-02-14T00:12:33;0.00;99.90
8643;DHT22;4359;49.358;11.256;2024-02-14T00:14:59;-0.10;99.90
8643;DHT22;4359;49.358;11.256;2024-02-14T00:17:25;-0.10;99.90
8643;DHT22;4359;49.358;11.256;2024-02-14T00:19:50;-0.10;99.90
8643;DHT22;4359;49.358;11.256;2024-02-14T00:22:16;-0.10;99.90
8643;DHT22;4359;49.358;11.256;2024-02-14T00:24:42;-0.20;99.90
8643;DHT22;4359;49.358;11.256;2024-02-14T00:27:08;-0.20;99.90
8643;DHT22;4359;49.358;11.256;2024-02-14T00:29:34;-0.30;99.90
8643;DHT22;4359;49.358;11.256;2024-02-14T00:32:00;-0.30;99.90
8643;DHT22;4359;49.358;11.256;2024-02-14T00:34:26;-0.40;99.90
8643;DHT22;4359;49.358;11.256;2024-02-14T00:36:52;-0.40;99.90
8643;DHT22;4359;49.358;11.256;2024-02-14T00:39:17;-0.50;99.90
8643;DHT22;4359;49.358;11.256;2024-02-14T00:41:43;-0.40;99.90
8643;DHT22;4359;49.358;11.256;2024-02-14T00:44:08;-0.50;99.90
8643;DHT22;4359;49.358;11.256;2024-02-14T00:46:34;-0.50;99.90
8643;DHT22;4359;49.358;11.256;2024-02-14T00:49:00;-0.50;99.90
8643;DHT22;4359;49.358;11.256;2024-02-14T00:51:25;-0.50;99.90
8643;DHT22;4359;49.358;11.256;2024-02-14T00:53:52;-0.60;99.90
8643;DHT22;4359;49.358;11.256;2024-02-14T00:56:17;-0.60;99.90
8643;DHT22;4359;49.358;11.256;2024-02-14T00:58:43;-0.60;99.90
8643;DHT22;4359;49.358;11.256;2024-02-14T01:01:09;-0.60;99.90
8643;DHT22;4359;49.358;11.256;2024-02-14T01:03:34;-0.60;99.90
8643;DHT22;4359;49.358;11.256;2024-02-14T01:06:00;-0.60;99.90
8643;DHT22;4359;49.358;11.256;2024-02-14T01:08:26;-0.60;99.90
8643;DHT22;4359;49.358;11.256;2024-02-14T01:10:51;-0.60;99.90
8643;DHT22;4359;49.358;11.256;2024-02-14T01:13:20;-0.70;99.90
8643;DHT22;4359;49.358;11.256;2024-02-14T01:15:45;-0.70;99.90
8643;DHT22;4359;49.358;11.256;2024-02-14T01:18:11;-0.70;99.90
8643;DHT22;4359;49.358;11.256;2024-02-14T01:20:36;-0.70;99.90
8643;DHT22;4359;49.358;11.256;2024-02-14T01:23:03;-0.70;99.90
8643;DHT22;4359;49.358;11.256;2024-02-14T01:25:28;-0.60;99.90
8643;DHT22;4359;49.358;11.256;2024-02-14T01:27:54;-0.60;99.90
8643;DHT22;4359;49.358;11.256;2024-02-14T01:30:19;-0.60;99.90
8643;DHT22;4359;49.358;11.256;2024-02-14T01:32:45;-0.60;99.90
8643;DHT22;4359;49.358;11.256;2024-02-14T01:35:11;-0.50;99.90
8643;DHT22;4359;49.358;11.256;2024-02-14T01:37:36;-0.50;99.90
8643;DHT22;4359;49.358;11.256;2024-02-14T01:40:02;-0.50;99.90
8643;DHT22;4359;49.358;11.256;2024-02-14T01:42:28;-0.50;99.90
8643;DHT22;4359;49.358;11.256;2024-02-14T01:44:54;-0.50;99.90
8643;DHT22;4359;49.358;11.256;2024-02-14T01:47:22;-0.40;99.90
8643;DHT22;4359;49.358;11.256;2024-02-14T01:49:48;-0.50;99.90
8643;DHT22;4359;49.358;11.256;2024-02-14T01:52:14;-0.50;99.90
8643;DHT22;4359;49.358;11.256;2024-02-14T01:54:39;-0.40;99.90
8643;DHT22;4359;49.358;11.256;2024-02-14T01:57:06;-0.40;99.90
8643;DHT22;4359;49.358;11.256;2024-02-14T01:59:34;-0.40;99.90
8643;DHT22;4359;49.358;11.256;2024-02-14T02:02:03;-0.40;99.90
8643;DHT22;4359;49.358;11.256;2024-02-14T02:04:32;-0.40;99.90
8643;DHT22;4359;49.358;11.256;2024-02-14T02:06:58;-0.40;99.90
8643;DHT22;4359;49.358;11.256;2024-02-14T02:09:23;-0.30;99.90
8643;DHT22;4359;49.358;11.256;2024-02-14T02:11:49;-0.30;99.90
8643;DHT22;4359;49.358;11.256;2024-02-14T02:14:15;-0.20;99.90
8643;DHT22;4359;49.358;11.256;2024-02-14T02:16:42;-0.20;99.90
8643;DHT22;4359;49.358;11.256;2024-02-14T02:19:07;-0.20;99.90
8643;DHT22;4359;49.358;11.256;2024-02-14T02:21:37;-0.20;99.90
8643;DHT22;4359;49.358;11.256;2024-02-14T02:24:03;-0.20;99.90
8643;DHT22;4359;49.358;11.256;2024-02-14T02:26:29;-0.20;99.90
8643;DHT22;4359;49.358;11.256;2024-02-14T02:28:55;-0.30;99.90
8643;DHT22;4359;49.358;11.256;2024-02-14T02:31:22;-0.30;99.90
8643;DHT22;4359;49.358;11.256;2024-02-14T02:33:47;-0.30;99.90
8643;DHT22;4359;49.358;11.256;2024-02-14T02:36:13;-0.40;99.90
8643;DHT22;4359;49.358;11.256;2024-02-14T02:38:41;-0.40;99.90
8643;DHT22;4359;49.358;11.256;2024-02-14T02:41:07;-0.50;99.90
8643;DHT22;4359;49.358;11.256;2024-02-14T02:43:33;-0.50;99.90
8643;DHT22;4359;49.358;11.256;2024-02-14T02:46:00;-0.50;99.90
8643;DHT22;4359;49.358;11.256;2024-02-14T02:48:25;-0.50;99.90
8643;DHT22;4359;49.358;11.256;2024-02-14T02:50:51;-0.50;99.90
8643;DHT22;4359;49.358;11.256;2024-02-14T02:53:17;-0.50;99.90
8643;DHT22;4359;49.358;11.256;2024-02-14T02:55:43;-0.40;99.90
8643;DHT22;4359;49.358;11.256;2024-02-14T02:58:09;-0.40;99.90
8643;DHT22;4359;49.358;11.256;2024-02-14T03:00:35;-0.30;99.90
8643;DHT22;4359;49.358;11.256;2024-02-14T03:03:01;-0.30;99.90
8643;DHT22;4359;49.358;11.256;2024-02-14T03:05:28;-0.30;99.90
8643;DHT22;4359;49.358;11.256;2024-02-14T03:07:57;-0.30;99.90
8643;DHT22;4359;49.358;11.256;2024-02-14T03:10:24;-0.40;99.90
8643;DHT22;4359;49.358;11.256;2024-02-14T03:12:50;-0.30;99.90
8643;DHT22;4359;49.358;11.256;2024-02-14T03:15:16;-0.40;99.90
8643;DHT22;4359;49.358;11.256;2024-02-14T03:17:42;-0.30;99.90
8643;DHT22;4359;49.358;11.256;2024-02-14T03:20:08;-0.30;99.90
8643;DHT22;4359;49.358;11.256;2024-02-14T03:22:40;-0.30;99.90
8643;DHT22;4359;49.358;11.256;2024-02-14T03:25:21;-0.30;99.90
8643;DHT22;4359;49.358;11.256;2024-02-14T03:27:49;-0.30;99.90
8643;DHT22;4359;49.358;11.256;2024-02-14T03:30:21;-0.40;99.90
8643;DHT22;4359;49.358;11.256;2024-02-14T03:32:47;-0.40;99.90
8643;DHT22;4359;49.358;11.256;2024-02-14T03:35:13;-0.40;99.90
8643;DHT22;4359;49.358;11.256;2024-02-14T03:37:42;-0.40;99.90
8643;DHT22;4359;49.358;11.256;2024-02-14T03:40:09;-0.40;99.90
8643;DHT22;4359;49.358;11.256;2024-02-14T03:42:35;-0.40;99.90
8643;DHT22;4359;49.358;11.256;2024-02-14T03:45:01;-0.40;99.90
8643;DHT22;4359;49.358;11.256;2024-02-14T03:47:34;-0.40;99.90
8643;DHT22;4359;49.358;11.256;2024-02-14T03:50:00;-0.40;99.90
8643;DHT22;4359;49.358;11.256;2024-02-14T03:52:27;-0.40;99.90
8643;DHT22;4359;49.358;11.256;2024-02-14T03:54:53;-0.50;99.90
8643;DHT22;4359;49.358;11.256;2024-02-14T03:57:18;-0.60;99.90
8643;DHT22;4359;49.358;11.256;2024-02-14T03:59:44;-0.60;99.90
8643;DHT22;4359;49.358;11.256;2024-02-14T04:02:10;-0.70;99.90
8643;DHT22;4359;49.358;11.256;2024-02-14T04:04:36;-0.70;99.90
8643;DHT22;4359;49.358;11.256;2024-02-14T04:07:03;-0.70;99.90
8643;DHT22;4359;49.358;11.256;2024-02-14T04:09:28;-0.80;99.90
8643;DHT22;4359;49.358;11.256;2024-02-14T04:11:54;-0.90;99.90
8643;DHT22;4359;49.358;11.256;2024-02-14T04:14:20;-0.90;99.90
8643;DHT22;4359;49.358;11.256;2024-02-14T04:16:46;-0.90;99.90
8643;DHT22;4359;49.358;11.256;2024-02-14T04:19:12;-0.90;99.90
8643;DHT22;4359;49.358;11.256;2024-02-14T04:21:38;-1.00;99.90
8643;DHT22;4359;49.358;11.256;2024-02-14T04:24:04;-0.90;99.90
8643;DHT22;4359;49.358;11.256;2024-02-14T04:26:30;-1.00;99.90
8643;DHT22;4359;49.358;11.256;2024-02-14T04:28:55;-0.90;99.90
8643;DHT22;4359;49.358;11.256;2024-02-14T04:31:21;-0.90;99.90
8643;DHT22;4359;49.358;11.256;2024-02-14T04:33:47;-1.00;99.90
8643;DHT22;4359;49.358;11.256;2024-02-14T04:36:20;-1.00;99.90
8643;DHT22;4359;49.358;11.256;2024-02-14T04:38:46;-1.00;99.90
8643;DHT22;4359;49.358;11.256;2024-02-14T04:41:13;-0.80;99.90
8643;DHT22;4359;49.358;11.256;2024-02-14T04:43:40;-0.90;99.90
8643;DHT22;4359;49.358;11.256;2024-02-14T04:46:05;-0.90;99.90
8643;DHT22;4359;49.358;11.256;2024-02-14T04:48:36;-0.90;99.90
8643;DHT22;4359;49.358;11.256;2024-02-14T04:51:02;-0.90;99.90
8643;DHT22;4359;49.358;11.256;2024-02-14T04:53:28;-0.90;99.90
8643;DHT22;4359;49.358;11.256;2024-02-14T04:55:54;-0.80;99.90
8643;DHT22;4359;49.358;11.256;2024-02-14T04:58:20;-0.80;99.90
8643;DHT22;4359;49.358;11.256;2024-02-14T05:00:45;-0.70;99.90
8643;DHT22;4359;49.358;11.256;2024-02-14T05:03:11;-0.60;99.90
8643;DHT22;4359;49.358;11.256;2024-02-14T05:05:37;-0.40;99.90
8643;DHT22;4359;49.358;11.256;2024-02-14T05:08:03;-0.30;99.90
8643;DHT22;4359;49.358;11.256;2024-02-14T05:10:29;-0.30;99.90
8643;DHT22;4359;49.358;11.256;2024-02-14T05:12:55;-0.20;99.90
8643;DHT22;4359;49.358;11.256;2024-02-14T05:15:20;-0.20;99.90
8643;DHT22;4359;49.358;11.256;2024-02-14T05:17:46;-0.20;99.90
8643;DHT22;4359;49.358;11.256;2024-02-14T05:20:12;0.00;99.90
8643;DHT22;4359;49.358;11.256;2024-02-14T05:22:38;0.00;99.90
8643;DHT22;4359;49.358;11.256;2024-02-14T05:25:04;0.00;99.90
8643;DHT22;4359;49.358;11.256;2024-02-14T05:27:32;0.10;99.90
8643;DHT22;4359;49.358;11.256;2024-02-14T05:29:58;0.10;99.90
8643;DHT22;4359;49.358;11.256;2024-02-14T05:32:24;0.20;99.90
8643;DHT22;4359;49.358;11.256;2024-02-14T05:34:50;0.20;99.90
8643;DHT22;4359;49.358;11.256;2024-02-14T05:37:16;0.30;99.90
8643;DHT22;4359;49.358;11.256;2024-02-14T05:39:41;0.30;99.90
8643;DHT22;4359;49.358;11.256;2024-02-14T05:42:07;0.30;99.90
8643;DHT22;4359;49.358;11.256;2024-02-14T05:44:32;0.30;99.90
8643;DHT22;4359;49.358;11.256;2024-02-14T05:46:58;0.40;99.90
8643;DHT22;4359;49.358;11.256;2024-02-14T05:49:24;0.40;99.90
8643;DHT22;4359;49.358;11.256;2024-02-14T05:51:50;0.50;99.90
8643;DHT22;4359;49.358;11.256;2024-02-14T05:54:18;0.60;99.90
8643;DHT22;4359;49.358;11.256;2024-02-14T05:56:43;0.60;99.90
8643;DHT22;4359;49.358;11.256;2024-02-14T05:59:10;0.50;99.90
8643;DHT22;4359;49.358;11.256;2024-02-14T06:01:35;0.60;99.90
8643;DHT22;4359;49.358;11.256;2024-02-14T06:04:01;0.70;99.90
8643;DHT22;4359;49.358;11.256;2024-02-14T06:06:26;0.70;99.90
8643;DHT22;4359;49.358;11.256;2024-02-14T06:08:52;0.70;99.90
8643;DHT22;4359;49.358;11.256;2024-02-14T06:11:18;0.70;99.90
8643;DHT22;4359;49.358;11.256;2024-02-14T06:13:47;0.70;99.90
8643;DHT22;4359;49.358;11.256;2024-02-14T06:16:13;0.80;99.90
8643;DHT22;4359;49.358;11.256;2024-02-14T06:18:38;0.80;99.90
8643;DHT22;4359;49.358;11.256;2024-02-14T06:21:05;0.80;99.90
8643;DHT22;4359;49.358;11.256;2024-02-14T06:23:31;0.80;99.90
8643;DHT22;4359;49.358;11.256;2024-02-14T06:25:57;0.90;99.90
8643;DHT22;4359;49.358;11.256;2024-02-14T06:28:23;1.00;99.90
8643;DHT22;4359;49.358;11.256;2024-02-14T06:30:48;1.00;99.90
8643;DHT22;4359;49.358;11.256;2024-02-14T06:33:14;1.00;99.90
8643;DHT22;4359;49.358;11.256;2024-02-14T06:35:39;1.00;99.90
8643;DHT22;4359;49.358;11.256;2024-02-14T06:38:05;1.00;99.90
8643;DHT22;4359;49.358;11.256;2024-02-14T06:40:32;1.00;99.90
8643;DHT22;4359;49.358;11.256;2024-02-14T06:42:58;1.00;99.90
8643;DHT22;4359;49.358;11.256;2024-02-14T06:45:25;1.00;99.90
8643;DHT22;4359;49.358;11.256;2024-02-14T06:47:51;1.10;99.90
8643;DHT22;4359;49.358;11.256;2024-02-14T06:50:17;1.20;99.90
8643;DHT22;4359;49.358;11.256;2024-02-14T06:52:42;1.20;99.90
8643;DHT22;4359;49.358;11.256;2024-02-14T06:55:08;1.30;99.90
8643;DHT22;4359;49.358;11.256;2024-02-14T06:57:34;1.40;99.90
8643;DHT22;4359;49.358;11.256;2024-02-14T06:59:59;1.40;99.90
8643;DHT22;4359;49.358;11.256;2024-02-14T07:02:25;1.40;99.90
8643;DHT22;4359;49.358;11.256;2024-02-14T07:04:53;1.50;99.90
8643;DHT22;4359;49.358;11.256;2024-02-14T07:07:20;1.50;99.90
8643;DHT22;4359;49.358;11.256;2024-02-14T07:09:45;1.50;99.90
8643;DHT22;4359;49.358;11.256;2024-02-14T07:12:11;1.50;99.90
8643;DHT22;4359;49.358;11.256;2024-02-14T07:14:36;1.60;99.90
8643;DHT22;4359;49.358;11.256;2024-02-14T07:17:02;1.60;99.90
8643;DHT22;4359;49.358;11.256;2024-02-14T07:19:28;1.60;99.90
8643;DHT22;4359;49.358;11.256;2024-02-14T07:21:54;1.70;99.90
8643;DHT22;4359;49.358;11.256;2024-02-14T07:24:19;1.80;99.90
8643;DHT22;4359;49.358;11.256;2024-02-14T07:26:45;1.80;99.90
8643;DHT22;4359;49.358;11.256;2024-02-14T07:29:11;1.90;99.90
8643;DHT22;4359;49.358;11.256;2024-02-14T07:31:37;2.10;99.90
8643;DHT22;4359;49.358;11.256;2024-02-14T07:34:02;2.20;99.90
8643;DHT22;4359;49.358;11.256;2024-02-14T07:36:29;2.30;99.90
8643;DHT22;4359;49.358;11.256;2024-02-14T07:38:55;2.30;99.90
8643;DHT22;4359;49.358;11.256;2024-02-14T07:41:20;2.40;99.90
8643;DHT22;4359;49.358;11.256;2024-02-14T07:43:46;2.50;99.90
8643;DHT22;4359;49.358;11.256;2024-02-14T07:46:16;2.50;99.90
8643;DHT22;4359;49.358;11.256;2024-02-14T07:48:41;2.60;99.90
8643;DHT22;4359;49.358;11.256;2024-02-14T07:51:07;2.70;99.90
8643;DHT22;4359;49.358;11.256;2024-02-14T07:53:33;2.70;99.90
8643;DHT22;4359;49.358;11.256;2024-02-14T07:55:59;2.80;99.90
8643;DHT22;4359;49.358;11.256;2024-02-14T07:58:24;2.90;99.90
8643;DHT22;4359;49.358;11.256;2024-02-14T08:00:50;3.10;99.90
8643;DHT22;4359;49.358;11.256;2024-02-14T08:03:15;3.20;99.90
8643;DHT22;4359;49.358;11.256;2024-02-14T08:05:41;3.40;99.90
8643;DHT22;4359;49.358;11.256;2024-02-14T08:08:08;3.70;99.90
8643;DHT22;4359;49.358;11.256;2024-02-14T08:10:33;4.00;99.90
8643;DHT22;4359;49.358;11.256;2024-02-14T08:12:59;4.10;99.90
8643;DHT22;4359;49.358;11.256;2024-02-14T08:15:25;4.20;99.90
8643;DHT22;4359;49.358;11.256;2024-02-14T08:17:50;4.30;99.90
8643;DHT22;4359;49.358;11.256;2024-02-14T08:20:19;4.30;99.90
8643;DHT22;4359;49.358;11.256;2024-02-14T08:22:44;4.20;99.90
8643;DHT22;4359;49.358;11.256;2024-02-14T08:25:10;4.10;99.90
8643;DHT22;4359;49.358;11.256;2024-02-14T08:27:37;4.30;99.90
8643;DHT22;4359;49.358;11.256;2024-02-14T08:30:02;4.40;99.90
8643;DHT22;4359;49.358;11.256;2024-02-14T08:32:30;4.60;99.90
8643;DHT22;4359;49.358;11.256;2024-02-14T08:34:55;4.80;99.90
8643;DHT22;4359;49.358;11.256;2024-02-14T08:37:21;4.90;99.90
8643;DHT22;4359;49.358;11.256;2024-02-14T08:39:47;4.90;99.90
8643;DHT22;4359;49.358;11.256;2024-02-14T08:42:13;4.90;99.90
8643;DHT22;4359;49.358;11.256;2024-02-14T08:44:38;5.00;99.90
8643;DHT22;4359;49.358;11.256;2024-02-14T08:47:04;5.10;99.90
8643;DHT22;4359;49.358;11.256;2024-02-14T08:49:30;5.20;99.90
8643;DHT22;4359;49.358;11.256;2024-02-14T08:51:56;5.30;99.90
8643;DHT22;4359;49.358;11.256;2024-02-14T08:54:21;5.40;99.90
8643;DHT22;4359;49.358;11.256;2024-02-14T08:56:48;5.50;99.90
8643;DHT22;4359;49.358;11.256;2024-02-14T08:59:14;5.60;99.90
8643;DHT22;4359;49.358;11.256;2024-02-14T09:01:39;5.80;99.90
8643;DHT22;4359;49.358;11.256;2024-02-14T09:04:05;6.10;99.90
8643;DHT22;4359;49.358;11.256;2024-02-14T09:06:31;6.30;99.90
8643;DHT22;4359;49.358;11.256;2024-02-14T09:08:58;6.40;99.90
8643;DHT22;4359;49.358;11.256;2024-02-14T09:11:24;6.50;99.90
8643;DHT22;4359;49.358;11.256;2024-02-14T09:13:51;6.60;99.90
8643;DHT22;4359;49.358;11.256;2024-02-14T09:16:19;6.70;99.90
8643;DHT22;4359;49.358;11.256;2024-02-14T09:18:47;7.00;99.90
8643;DHT22;4359;49.358;11.256;2024-02-14T09:21:13;7.30;99.90
8643;DHT22;4359;49.358;11.256;2024-02-14T09:23:40;7.70;99.90
8643;DHT22;4359;49.358;11.256;2024-02-14T09:26:07;7.70;99.90
8643;DHT22;4359;49.358;11.256;2024-02-14T09:28:33;7.90;99.90
8643;DHT22;4359;49.358;11.256;2024-02-14T09:31:00;8.00;99.90
8643;DHT22;4359;49.358;11.256;2024-02-14T09:33:26;8.00;99.90
8643;DHT22;4359;49.358;11.256;2024-02-14T09:35:52;8.10;99.90
8643;DHT22;4359;49.358;11.256;2024-02-14T09:38:18;8.20;99.90
8643;DHT22;4359;49.358;11.256;2024-02-14T09:40:44;8.00;99.90
8643;DHT22;4359;49.358;11.256;2024-02-14T09:45:42;7.70;99.90
8643;DHT22;4359;49.358;11.256;2024-02-14T09:48:10;7.70;99.90
8643;DHT22;4359;49.358;11.256;2024-02-14T09:50:38;7.80;99.90
8643;DHT22;4359;49.358;11.256;2024-02-14T09:53:04;7.90;99.90
8643;DHT22;4359;49.358;11.256;2024-02-14T09:55:30;8.00;99.90
8643;DHT22;4359;49.358;11.256;2024-02-14T09:57:56;8.10;99.90
8643;DHT22;4359;49.358;11.256;2024-02-14T10:00:23;8.10;99.90
8643;DHT22;4359;49.358;11.256;2024-02-14T10:02:49;8.20;99.90
8643;DHT22;4359;49.358;11.256;2024-02-14T10:05:15;8.30;99.90
8643;DHT22;4359;49.358;11.256;2024-02-14T10:07:42;8.20;99.90
8643;DHT22;4359;49.358;11.256;2024-02-14T10:10:08;8.30;99.90
8643;DHT22;4359;49.358;11.256;2024-02-14T10:12:34;8.40;99.90
8643;DHT22;4359;49.358;11.256;2024-02-14T10:14:59;8.20;99.90
8643;DHT22;4359;49.358;11.256;2024-02-14T10:17:27;8.10;99.90
8643;DHT22;4359;49.358;11.256;2024-02-14T10:19:57;8.10;99.90
8643;DHT22;4359;49.358;11.256;2024-02-14T10:22:22;8.00;99.90
8643;DHT22;4359;49.358;11.256;2024-02-14T10:24:48;8.10;99.90
8643;DHT22;4359;49.358;11.256;2024-02-14T10:27:15;8.00;99.90
8643;DHT22;4359;49.358;11.256;2024-02-14T10:29:41;8.00;99.90
8643;DHT22;4359;49.358;11.256;2024-02-14T10:32:07;8.10;99.90
8643;DHT22;4359;49.358;11.256;2024-02-14T10:34:33;8.20;99.90
8643;DHT22;4359;49.358;11.256;2024-02-14T10:37:00;8.30;99.90
8643;DHT22;4359;49.358;11.256;2024-02-14T10:39:26;8.60;99.90
8643;DHT22;4359;49.358;11.256;2024-02-14T10:41:52;8.80;99.90
8643;DHT22;4359;49.358;11.256;2024-02-14T10:44:18;9.00;99.90
8643;DHT22;4359;49.358;11.256;2024-02-14T10:46:44;9.10;99.90
8643;DHT22;4359;49.358;11.256;2024-02-14T10:49:12;9.20;99.90
8643;DHT22;4359;49.358;11.256;2024-02-14T10:51:40;9.40;99.90
8643;DHT22;4359;49.358;11.256;2024-02-14T10:54:10;9.50;99.90
8643;DHT22;4359;49.358;11.256;2024-02-14T10:56:41;9.70;99.90
8643;DHT22;4359;49.358;11.256;2024-02-14T10:59:12;10.10;99.90
8643;DHT22;4359;49.358;11.256;2024-02-14T11:01:39;10.40;99.90
8643;DHT22;4359;49.358;11.256;2024-02-14T11:04:06;10.50;99.90
8643;DHT22;4359;49.358;11.256;2024-02-14T11:06:32;10.80;99.90
8643;DHT22;4359;49.358;11.256;2024-02-14T11:09:08;10.90;99.90
8643;DHT22;4359;49.358;11.256;2024-02-14T11:11:38;10.90;99.90
8643;DHT22;4359;49.358;11.256;2024-02-14T11:14:06;10.80;99.90
8643;DHT22;4359;49.358;11.256;2024-02-14T11:16:31;10.70;99.90
8643;DHT22;4359;49.358;11.256;2024-02-14T11:19:08;10.60;99.90
8643;DHT22;4359;49.358;11.256;2024-02-14T11:21:46;10.50;99.90
8643;DHT22;4359;49.358;11.256;2024-02-14T11:24:13;10.30;99.90
8643;DHT22;4359;49.358;11.256;2024-02-14T11:26:47;10.30;99.90
8643;DHT22;4359;49.358;11.256;2024-02-14T11:29:15;10.10;99.90
8643;DHT22;4359;49.358;11.256;2024-02-14T11:31:42;10.00;99.90
8643;DHT22;4359;49.358;11.256;2024-02-14T11:34:10;10.10;99.90
8643;DHT22;4359;49.358;11.256;2024-02-14T11:36:37;10.30;99.90
8643;DHT22;4359;49.358;11.256;2024-02-14T11:39:05;10.50;99.90
8643;DHT22;4359;49.358;11.256;2024-02-14T11:41:34;10.50;99.90
8643;DHT22;4359;49.358;11.256;2024-02-14T11:44:06;10.60;99.90
8643;DHT22;4359;49.358;11.256;2024-02-14T11:46:33;10.70;99.90
8643;DHT22;4359;49.358;11.256;2024-02-14T11:49:00;10.70;99.90
8643;DHT22;4359;49.358;11.256;2024-02-14T11:51:31;10.80;99.90
8643;DHT22;4359;49.358;11.256;2024-02-14T11:53:58;11.00;99.90
8643;DHT22;4359;49.358;11.256;2024-02-14T11:56:34;11.10;99.90
8643;DHT22;4359;49.358;11.256;2024-02-14T11:59:08;11.30;99.90
8643;DHT22;4359;49.358;11.256;2024-02-14T12:01:36;11.60;99.90
8643;DHT22;4359;49.358;11.256;2024-02-14T12:04:06;11.80;99.90
8643;DHT22;4359;49.358;11.256;2024-02-14T12:06:34;12.10;99.90
8643;DHT22;4359;49.358;11.256;2024-02-14T12:09:01;11.90;99.90
8643;DHT22;4359;49.358;11.256;2024-02-14T12:11:34;11.70;99.90
8643;DHT22;4359;49.358;11.256;2024-02-14T12:14:03;11.50;99.90
8643;DHT22;4359;49.358;11.256;2024-02-14T12:16:29;11.50;99.90
8643;DHT22;4359;49.358;11.256;2024-02-14T12:19:13;11.80;99.90
8643;DHT22;4359;49.358;11.256;2024-02-14T12:21:41;12.10;99.90
8643;DHT22;4359;49.358;11.256;2024-02-14T12:24:08;12.50;99.90
8643;DHT22;4359;49.358;11.256;2024-02-14T12:26:35;12.40;99.90
8643;DHT22;4359;49.358;11.256;2024-02-14T12:29:05;12.50;99.90
8643;DHT22;4359;49.358;11.256;2024-02-14T12:31:33;12.60;99.90
8643;DHT22;4359;49.358;11.256;2024-02-14T12:34:00;12.50;99.90
8643;DHT22;4359;49.358;11.256;2024-02-14T12:36:28;12.50;99.90
8643;DHT22;4359;49.358;11.256;2024-02-14T12:38:54;12.10;99.90
8643;DHT22;4359;49.358;11.256;2024-02-14T12:41:21;12.00;99.90
8643;DHT22;4359;49.358;11.256;2024-02-14T12:43:49;12.10;99.90
8643;DHT22;4359;49.358;11.256;2024-02-14T12:46:15;12.10;99.90
8643;DHT22;4359;49.358;11.256;2024-02-14T12:48:41;12.10;99.90
8643;DHT22;4359;49.358;11.256;2024-02-14T12:51:07;12.20;99.90
8643;DHT22;4359;49.358;11.256;2024-02-14T12:53:33;12.20;99.90
8643;DHT22;4359;49.358;11.256;2024-02-14T12:55:59;12.10;99.90
8643;DHT22;4359;49.358;11.256;2024-02-14T12:58:25;12.00;99.90
8643;DHT22;4359;49.358;11.256;2024-02-14T13:00:50;12.10;99.90
8643;DHT22;4359;49.358;11.256;2024-02-14T13:03:16;12.00;99.90
8643;DHT22;4359;49.358;11.256;2024-02-14T13:05:42;11.90;99.90
8643;DHT22;4359;49.358;11.256;2024-02-14T13:08:08;11.70;99.90
8643;DHT22;4359;49.358;11.256;2024-02-14T13:10:38;11.80;99.90
8643;DHT22;4359;49.358;11.256;2024-02-14T13:13:04;11.70;99.90
8643;DHT22;4359;49.358;11.256;2024-02-14T13:15:30;11.80;99.90
8643;DHT22;4359;49.358;11.256;2024-02-14T13:17:55;11.70;99.90
8643;DHT22;4359;49.358;11.256;2024-02-14T13:20:24;11.50;99.90
8643;DHT22;4359;49.358;11.256;2024-02-14T13:22:49;11.60;99.90
8643;DHT22;4359;49.358;11.256;2024-02-14T13:25:15;11.60;99.90
8643;DHT22;4359;49.358;11.256;2024-02-14T13:27:42;11.60;99.90
8643;DHT22;4359;49.358;11.256;2024-02-14T13:30:08;11.60;99.90
8643;DHT22;4359;49.358;11.256;2024-02-14T13:32:34;11.70;99.90
8643;DHT22;4359;49.358;11.256;2024-02-14T13:34:59;11.70;99.90
8643;DHT22;4359;49.358;11.256;2024-02-14T13:37:25;11.70;99.90
8643;DHT22;4359;49.358;11.256;2024-02-14T13:39:51;11.70;99.90
8643;DHT22;4359;49.358;11.256;2024-02-14T13:42:17;11.90;99.90
8643;DHT22;4359;49.358;11.256;2024-02-14T13:44:43;11.90;99.90
8643;DHT22;4359;49.358;11.256;2024-02-14T13:47:10;12.20;99.90
8643;DHT22;4359;49.358;11.256;2024-02-14T13:49:35;12.20;99.90
8643;DHT22;4359;49.358;11.256;2024-02-14T13:52:01;12.30;99.90
8643;DHT22;4359;49.358;11.256;2024-02-14T13:54:27;12.30;99.90
8643;DHT22;4359;49.358;11.256;2024-02-14T13:56:52;12.10;99.90
8643;DHT22;4359;49.358;11.256;2024-02-14T13:59:18;11.90;99.90
8643;DHT22;4359;49.358;11.256;2024-02-14T14:01:45;11.80;99.90
8643;DHT22;4359;49.358;11.256;2024-02-14T14:06:41;11.50;99.90
8643;DHT22;4359;49.358;11.256;2024-02-14T14:09:07;11.30;99.90
8643;DHT22;4359;49.358;11.256;2024-02-14T14:11:34;11.30;99.90
8643;DHT22;4359;49.358;11.256;2024-02-14T14:13:59;11.20;99.90
8643;DHT22;4359;49.358;11.256;2024-02-14T14:16:26;11.10;99.90
8643;DHT22;4359;49.358;11.256;2024-02-14T14:18:51;11.00;99.90
8643;DHT22;4359;49.358;11.256;2024-02-14T14:21:17;11.00;99.90
8643;DHT22;4359;49.358;11.256;2024-02-14T14:23:43;10.80;99.90
8643;DHT22;4359;49.358;11.256;2024-02-14T14:26:09;10.70;99.90
8643;DHT22;4359;49.358;11.256;2024-02-14T14:28:35;10.60;99.90
8643;DHT22;4359;49.358;11.256;2024-02-14T14:31:01;10.40;99.90
8643;DHT22;4359;49.358;11.256;2024-02-14T14:33:27;10.40;99.90
8643;DHT22;4359;49.358;11.256;2024-02-14T14:35:53;10.30;99.90
8643;DHT22;4359;49.358;11.256;2024-02-14T14:38:20;10.30;99.90
8643;DHT22;4359;49.358;11.256;2024-02-14T14:40:46;10.40;99.90
8643;DHT22;4359;49.358;11.256;2024-02-14T14:43:13;10.40;99.90
8643;DHT22;4359;49.358;11.256;2024-02-14T14:45:38;10.50;99.90
8643;DHT22;4359;49.358;11.256;2024-02-14T14:48:05;10.50;99.90
8643;DHT22;4359;49.358;11.256;2024-02-14T14:50:31;10.70;99.90
8643;DHT22;4359;49.358;11.256;2024-02-14T14:52:57;10.80;99.90
8643;DHT22;4359;49.358;11.256;2024-02-14T14:55:25;10.80;99.90
8643;DHT22;4359;49.358;11.256;2024-02-14T14:57:50;10.80;99.90
8643;DHT22;4359;49.358;11.256;2024-02-14T15:00:17;10.80;99.90
8643;DHT22;4359;49.358;11.256;2024-02-14T15:02:43;10.80;99.90
8643;DHT22;4359;49.358;11.256;2024-02-14T15:05:11;11.00;99.90
8643;DHT22;4359;49.358;11.256;2024-02-14T15:07:40;10.90;99.90
8643;DHT22;4359;49.358;11.256;2024-02-14T15:10:06;10.90;99.90
8643;DHT22;4359;49.358;11.256;2024-02-14T15:12:36;10.80;99.90
8643;DHT22;4359;49.358;11.256;2024-02-14T15:15:05;10.90;99.90
8643;DHT22;4359;49.358;11.256;2024-02-14T15:17:31;10.90;99.90
8643;DHT22;4359;49.358;11.256;2024-02-14T15:19:57;10.90;99.90
8643;DHT22;4359;49.358;11.256;2024-02-14T15:22:24;10.90;99.90
8643;DHT22;4359;49.358;11.256;2024-02-14T15:24:50;10.90;99.90
8643;DHT22;4359;49.358;11.256;2024-02-14T15:27:18;10.80;99.90
8643;DHT22;4359;49.358;11.256;2024-02-14T15:29:49;10.90;99.90
8643;DHT22;4359;49.358;11.256;2024-02-14T15:32:33;10.90;99.90
8643;DHT22;4359;49.358;11.256;2024-02-14T15:35:18;10.90;99.90
8643;DHT22;4359;49.358;11.256;2024-02-14T15:37:45;10.90;99.90
8643;DHT22;4359;49.358;11.256;2024-02-14T15:40:17;10.90;99.90
8643;DHT22;4359;49.358;11.256;2024-02-14T15:42:43;10.90;99.90
8643;DHT22;4359;49.358;11.256;2024-02-14T15:45:09;10.80;99.90
8643;DHT22;4359;49.358;11.256;2024-02-14T15:47:44;10.70;99.90
8643;DHT22;4359;49.358;11.256;2024-02-14T15:50:10;10.50;99.90
8643;DHT22;4359;49.358;11.256;2024-02-14T15:52:36;10.50;99.90